sensor_id;sensor_type;location;lat;lon;timestamp;P1;durP1;ratioP1;P2;durP2;ratioP2
5491;SDS011;2768;53.540;10.224;2022-08-21T00:05:40;3.23;;;2.30;;
5491;SDS011;2768;53.540;10.224;2022-08-21T00:11:36;3.20;;;2.30;;
5491;SDS011;2768;53.540;10.224;2022-08-21T00:17:30;5.33;;;3.03;;
5491;SDS011;2768;53.540;10.224;2022-08-21T00:23:25;3.80;;;2.40;;
5491;SDS011;2768;53.540;10.224;2022-08-21T00:29:18;3.77;;;2.67;;
5491;SDS011;2768;53.540;10.224;2022-08-21T00:35:13;3.13;;;2.47;;
5491;SDS011;2768;53.540;10.224;2022-08-21T00:41:10;3.70;;;3.00;;
5491;SDS011;2768;53.540;10.224;2022-08-21T00:47:24;5.10;;;2.67;;
5491;SDS011;2768;53.540;10.224;2022-08-21T00:53:18;3.47;;;2.00;;
5491;SDS011;2768;53.540;10.224;2022-08-21T00:59:13;4.07;;;2.57;;
5491;SDS011;2768;53.540;10.224;2022-08-21T01:05:06;3.00;;;2.67;;
5491;SDS011;2768;53.540;10.224;2022-08-21T01:11:01;4.13;;;2.90;;
5491;SDS011;2768;53.540;10.224;2022-08-21T01:16:56;3.27;;;2.43;;
5491;SDS011;2768;53.540;10.224;2022-08-21T01:22:52;4.80;;;2.70;;
5491;SDS011;2768;53.540;10.224;2022-08-21T01:28:49;3.93;;;2.53;;
5491;SDS011;2768;53.540;10.224;2022-08-21T01:34:49;3.43;;;2.83;;
5491;SDS011;2768;53.540;10.224;2022-08-21T01:40:44;2.70;;;2.50;;
5491;SDS011;2768;53.540;10.224;2022-08-21T01:46:38;3.77;;;3.13;;
5491;SDS011;2768;53.540;10.224;2022-08-21T01:52:31;3.40;;;2.73;;
5491;SDS011;2768;53.540;10.224;2022-08-21T01:58:26;4.17;;;2.50;;
5491;SDS011;2768;53.540;10.224;2022-08-21T02:04:20;3.40;;;2.53;;
5491;SDS011;2768;53.540;10.224;2022-08-21T02:10:14;3.77;;;2.47;;
5491;SDS011;2768;53.540;10.224;2022-08-21T02:16:13;3.47;;;2.57;;
5491;SDS011;2768;53.540;10.224;2022-08-21T02:22:09;3.10;;;2.53;;
5491;SDS011;2768;53.540;10.224;2022-08-21T02:28:04;2.47;;;2.27;;
5491;SDS011;2768;53.540;10.224;2022-08-21T02:34:01;2.87;;;2.30;;
5491;SDS011;2768;53.540;10.224;2022-08-21T02:39:55;4.40;;;2.57;;
5491;SDS011;2768;53.540;10.224;2022-08-21T02:45:48;5.10;;;2.63;;
5491;SDS011;2768;53.540;10.224;2022-08-21T02:51:44;3.23;;;2.50;;
5491;SDS011;2768;53.540;10.224;2022-08-21T02:57:37;4.20;;;2.43;;
5491;SDS011;2768;53.540;10.224;2022-08-21T03:03:34;3.60;;;2.60;;
5491;SDS011;2768;53.540;10.224;2022-08-21T03:09:29;5.47;;;2.87;;
5491;SDS011;2768;53.540;10.224;2022-08-21T03:15:23;3.10;;;2.80;;
5491;SDS011;2768;53.540;10.224;2022-08-21T03:21:16;2.53;;;2.30;;
5491;SDS011;2768;53.540;10.224;2022-08-21T03:27:11;3.73;;;2.47;;
5491;SDS011;2768;53.540;10.224;2022-08-21T03:33:05;2.90;;;2.40;;
5491;SDS011;2768;53.540;10.224;2022-08-21T03:38:58;4.90;;;2.70;;
5491;SDS011;2768;53.540;10.224;2022-08-21T03:44:53;3.50;;;2.50;;
5491;SDS011;2768;53.540;10.224;2022-08-21T03:50:46;3.97;;;2.17;;
5491;SDS011;2768;53.540;10.224;2022-08-21T03:56:40;3.63;;;3.23;;
5491;SDS011;2768;53.540;10.224;2022-08-21T04:02:35;3.70;;;2.50;;
5491;SDS011;2768;53.540;10.224;2022-08-21T04:08:28;2.50;;;2.30;;
5491;SDS011;2768;53.540;10.224;2022-08-21T04:14:21;2.43;;;2.30;;
5491;SDS011;2768;53.540;10.224;2022-08-21T04:20:17;3.47;;;2.53;;
5491;SDS011;2768;53.540;10.224;2022-08-21T04:26:13;3.97;;;2.60;;
5491;SDS011;2768;53.540;10.224;2022-08-21T04:32:06;4.00;;;2.37;;
5491;SDS011;2768;53.540;10.224;2022-08-21T04:38:00;3.80;;;2.77;;
5491;SDS011;2768;53.540;10.224;2022-08-21T04:43:54;3.63;;;2.70;;
5491;SDS011;2768;53.540;10.224;2022-08-21T04:49:47;3.07;;;2.77;;
5491;SDS011;2768;53.540;10.224;2022-08-21T04:55:42;2.53;;;2.30;;
5491;SDS011;2768;53.540;10.224;2022-08-21T05:01:37;4.83;;;2.40;;
5491;SDS011;2768;53.540;10.224;2022-08-21T05:07:32;3.53;;;3.23;;
5491;SDS011;2768;53.540;10.224;2022-08-21T05:13:34;2.80;;;2.40;;
5491;SDS011;2768;53.540;10.224;2022-08-21T05:19:28;6.20;;;2.40;;
5491;SDS011;2768;53.540;10.224;2022-08-21T05:25:21;3.13;;;2.50;;
5491;SDS011;2768;53.540;10.224;2022-08-21T05:31:16;2.90;;;2.60;;
5491;SDS011;2768;53.540;10.224;2022-08-21T05:37:10;7.63;;;2.87;;
5491;SDS011;2768;53.540;10.224;2022-08-21T05:43:03;3.27;;;2.50;;
5491;SDS011;2768;53.540;10.224;2022-08-21T05:48:58;5.17;;;2.70;;
5491;SDS011;2768;53.540;10.224;2022-08-21T05:54:52;3.07;;;2.63;;
5491;SDS011;2768;53.540;10.224;2022-08-21T06:00:46;6.50;;;3.00;;
5491;SDS011;2768;53.540;10.224;2022-08-21T06:06:41;2.90;;;2.53;;
5491;SDS011;2768;53.540;10.224;2022-08-21T06:12:34;2.50;;;2.30;;
5491;SDS011;2768;53.540;10.224;2022-08-21T06:18:32;5.40;;;3.10;;
5491;SDS011;2768;53.540;10.224;2022-08-21T06:24:27;3.30;;;2.53;;
5491;SDS011;2768;53.540;10.224;2022-08-21T06:30:21;4.30;;;2.70;;
5491;SDS011;2768;53.540;10.224;2022-08-21T06:36:14;3.27;;;2.90;;
5491;SDS011;2768;53.540;10.224;2022-08-21T06:42:13;4.03;;;2.83;;
5491;SDS011;2768;53.540;10.224;2022-08-21T06:48:08;4.03;;;2.70;;
5491;SDS011;2768;53.540;10.224;2022-08-21T06:54:07;3.17;;;2.27;;
5491;SDS011;2768;53.540;10.224;2022-08-21T07:00:02;6.63;;;2.77;;
5491;SDS011;2768;53.540;10.224;2022-08-21T07:05:57;5.60;;;2.20;;
5491;SDS011;2768;53.540;10.224;2022-08-21T07:11:52;3.00;;;2.47;;
5491;SDS011;2768;53.540;10.224;2022-08-21T07:17:48;4.10;;;1.93;;
5491;SDS011;2768;53.540;10.224;2022-08-21T07:23:42;2.77;;;2.10;;
5491;SDS011;2768;53.540;10.224;2022-08-21T07:29:37;3.07;;;2.20;;
5491;SDS011;2768;53.540;10.224;2022-08-21T07:35:31;2.17;;;1.87;;
5491;SDS011;2768;53.540;10.224;2022-08-21T07:41:26;2.30;;;1.50;;
5491;SDS011;2768;53.540;10.224;2022-08-21T07:47:21;9.13;;;1.70;;
5491;SDS011;2768;53.540;10.224;2022-08-21T07:53:34;6.87;;;1.80;;
5491;SDS011;2768;53.540;10.224;2022-08-21T07:59:27;3.10;;;1.67;;
5491;SDS011;2768;53.540;10.224;2022-08-21T08:05:23;6.83;;;1.90;;
5491;SDS011;2768;53.540;10.224;2022-08-21T08:11:20;3.37;;;1.67;;
5491;SDS011;2768;53.540;10.224;2022-08-21T08:17:14;3.00;;;1.67;;
5491;SDS011;2768;53.540;10.224;2022-08-21T08:23:09;4.60;;;1.80;;
5491;SDS011;2768;53.540;10.224;2022-08-21T08:29:04;3.50;;;1.93;;
5491;SDS011;2768;53.540;10.224;2022-08-21T08:34:57;3.73;;;2.20;;
5491;SDS011;2768;53.540;10.224;2022-08-21T08:40:52;3.00;;;1.80;;
5491;SDS011;2768;53.540;10.224;2022-08-21T08:46:53;3.53;;;1.70;;
5491;SDS011;2768;53.540;10.224;2022-08-21T08:52:48;3.37;;;1.90;;
5491;SDS011;2768;53.540;10.224;2022-08-21T08:58:49;4.53;;;2.13;;
5491;SDS011;2768;53.540;10.224;2022-08-21T09:04:47;3.00;;;1.77;;
5491;SDS011;2768;53.540;10.224;2022-08-21T09:10:43;3.60;;;2.03;;
5491;SDS011;2768;53.540;10.224;2022-08-21T09:16:46;4.10;;;1.70;;
5491;SDS011;2768;53.540;10.224;2022-08-21T09:22:48;5.23;;;2.20;;
5491;SDS011;2768;53.540;10.224;2022-08-21T09:28:51;3.63;;;1.80;;
5491;SDS011;2768;53.540;10.224;2022-08-21T09:34:59;3.30;;;1.90;;
5491;SDS011;2768;53.540;10.224;2022-08-21T09:40:59;6.43;;;2.30;;
5491;SDS011;2768;53.540;10.224;2022-08-21T09:46:54;7.27;;;2.50;;
5491;SDS011;2768;53.540;10.224;2022-08-21T09:52:48;3.40;;;2.00;;
5491;SDS011;2768;53.540;10.224;2022-08-21T09:58:46;5.30;;;2.83;;
5491;SDS011;2768;53.540;10.224;2022-08-21T10:04:41;7.03;;;2.63;;
5491;SDS011;2768;53.540;10.224;2022-08-21T10:10:42;6.23;;;2.10;;
5491;SDS011;2768;53.540;10.224;2022-08-21T10:16:40;5.87;;;2.20;;
5491;SDS011;2768;53.540;10.224;2022-08-21T10:22:43;6.20;;;2.63;;
5491;SDS011;2768;53.540;10.224;2022-08-21T10:28:44;8.50;;;2.23;;
5491;SDS011;2768;53.540;10.224;2022-08-21T10:34:45;5.20;;;2.77;;
5491;SDS011;2768;53.540;10.224;2022-08-21T10:40:48;6.10;;;2.57;;
5491;SDS011;2768;53.540;10.224;2022-08-21T10:46:50;7.80;;;2.90;;
5491;SDS011;2768;53.540;10.224;2022-08-21T10:52:59;5.77;;;2.57;;
5491;SDS011;2768;53.540;10.224;2022-08-21T10:59:19;8.20;;;3.20;;
5491;SDS011;2768;53.540;10.224;2022-08-21T11:05:19;3.60;;;2.00;;
5491;SDS011;2768;53.540;10.224;2022-08-21T11:11:20;6.40;;;2.80;;
5491;SDS011;2768;53.540;10.224;2022-08-21T11:17:28;5.27;;;2.10;;
5491;SDS011;2768;53.540;10.224;2022-08-21T11:23:28;5.50;;;2.10;;
5491;SDS011;2768;53.540;10.224;2022-08-21T11:29:31;3.53;;;1.67;;
5491;SDS011;2768;53.540;10.224;2022-08-21T11:35:29;6.53;;;2.17;;
5491;SDS011;2768;53.540;10.224;2022-08-21T11:41:29;4.73;;;2.27;;
5491;SDS011;2768;53.540;10.224;2022-08-21T11:47:29;5.63;;;2.70;;
5491;SDS011;2768;53.540;10.224;2022-08-21T11:53:35;2.87;;;2.10;;
5491;SDS011;2768;53.540;10.224;2022-08-21T11:59:34;5.53;;;2.20;;
5491;SDS011;2768;53.540;10.224;2022-08-21T12:05:33;2.30;;;1.70;;
5491;SDS011;2768;53.540;10.224;2022-08-21T12:11:30;9.13;;;2.00;;
5491;SDS011;2768;53.540;10.224;2022-08-21T12:17:34;3.40;;;2.40;;
5491;SDS011;2768;53.540;10.224;2022-08-21T12:23:31;4.40;;;1.90;;
5491;SDS011;2768;53.540;10.224;2022-08-21T12:29:29;1.80;;;1.40;;
5491;SDS011;2768;53.540;10.224;2022-08-21T12:35:25;2.13;;;1.40;;
5491;SDS011;2768;53.540;10.224;2022-08-21T12:41:26;5.10;;;2.10;;
5491;SDS011;2768;53.540;10.224;2022-08-21T12:47:24;2.73;;;1.50;;
5491;SDS011;2768;53.540;10.224;2022-08-21T12:53:25;3.87;;;1.87;;
5491;SDS011;2768;53.540;10.224;2022-08-21T12:59:24;1.50;;;1.40;;
5491;SDS011;2768;53.540;10.224;2022-08-21T13:05:20;2.97;;;1.40;;
5491;SDS011;2768;53.540;10.224;2022-08-21T13:11:21;4.20;;;1.57;;
5491;SDS011;2768;53.540;10.224;2022-08-21T13:17:25;2.63;;;1.50;;
5491;SDS011;2768;53.540;10.224;2022-08-21T13:23:24;3.30;;;1.40;;
5491;SDS011;2768;53.540;10.224;2022-08-21T13:29:20;4.30;;;1.63;;
5491;SDS011;2768;53.540;10.224;2022-08-21T13:35:17;3.33;;;1.47;;
5491;SDS011;2768;53.540;10.224;2022-08-21T13:41:17;3.80;;;1.97;;
5491;SDS011;2768;53.540;10.224;2022-08-21T13:47:14;4.63;;;1.50;;
5491;SDS011;2768;53.540;10.224;2022-08-21T13:53:21;4.00;;;1.67;;
5491;SDS011;2768;53.540;10.224;2022-08-21T13:59:24;2.60;;;1.40;;
5491;SDS011;2768;53.540;10.224;2022-08-21T14:05:20;1.70;;;1.20;;
5491;SDS011;2768;53.540;10.224;2022-08-21T14:11:16;3.50;;;2.20;;
5491;SDS011;2768;53.540;10.224;2022-08-21T14:17:12;5.70;;;1.40;;
5491;SDS011;2768;53.540;10.224;2022-08-21T14:23:24;1.63;;;1.53;;
5491;SDS011;2768;53.540;10.224;2022-08-21T14:29:20;2.10;;;1.50;;
5491;SDS011;2768;53.540;10.224;2022-08-21T14:35:16;1.67;;;1.37;;
5491;SDS011;2768;53.540;10.224;2022-08-21T14:41:16;2.43;;;1.60;;
5491;SDS011;2768;53.540;10.224;2022-08-21T14:47:12;3.53;;;1.40;;
5491;SDS011;2768;53.540;10.224;2022-08-21T14:53:06;2.10;;;1.50;;
5491;SDS011;2768;53.540;10.224;2022-08-21T14:59:03;5.57;;;1.33;;
5491;SDS011;2768;53.540;10.224;2022-08-21T15:05:00;1.97;;;1.20;;
5491;SDS011;2768;53.540;10.224;2022-08-21T15:10:53;3.50;;;1.30;;
5491;SDS011;2768;53.540;10.224;2022-08-21T15:17:03;3.57;;;1.33;;
5491;SDS011;2768;53.540;10.224;2022-08-21T15:23:01;1.57;;;1.13;;
5491;SDS011;2768;53.540;10.224;2022-08-21T15:28:54;1.43;;;0.90;;
5491;SDS011;2768;53.540;10.224;2022-08-21T15:34:48;1.47;;;1.10;;
5491;SDS011;2768;53.540;10.224;2022-08-21T15:40:44;5.90;;;1.67;;
5491;SDS011;2768;53.540;10.224;2022-08-21T15:46:42;2.57;;;1.20;;
5491;SDS011;2768;53.540;10.224;2022-08-21T15:52:36;1.43;;;1.30;;
5491;SDS011;2768;53.540;10.224;2022-08-21T15:58:31;2.20;;;1.40;;
5491;SDS011;2768;53.540;10.224;2022-08-21T16:04:26;1.97;;;1.40;;
5491;SDS011;2768;53.540;10.224;2022-08-21T16:10:21;2.00;;;1.53;;
5491;SDS011;2768;53.540;10.224;2022-08-21T16:16:22;2.20;;;1.40;;
5491;SDS011;2768;53.540;10.224;2022-08-21T16:22:16;3.53;;;1.50;;
5491;SDS011;2768;53.540;10.224;2022-08-21T16:28:10;2.00;;;1.23;;
5491;SDS011;2768;53.540;10.224;2022-08-21T16:34:08;1.27;;;1.17;;
5491;SDS011;2768;53.540;10.224;2022-08-21T16:40:07;2.60;;;1.90;;
5491;SDS011;2768;53.540;10.224;2022-08-21T16:46:02;2.17;;;1.27;;
5491;SDS011;2768;53.540;10.224;2022-08-21T16:51:57;3.07;;;1.27;;
5491;SDS011;2768;53.540;10.224;2022-08-21T16:57:51;2.23;;;1.30;;
5491;SDS011;2768;53.540;10.224;2022-08-21T17:03:46;4.23;;;2.10;;
5491;SDS011;2768;53.540;10.224;2022-08-21T17:09:43;2.90;;;1.60;;
5491;SDS011;2768;53.540;10.224;2022-08-21T17:15:36;3.83;;;2.33;;
5491;SDS011;2768;53.540;10.224;2022-08-21T17:21:30;3.90;;;1.67;;
5491;SDS011;2768;53.540;10.224;2022-08-21T17:27:25;2.33;;;1.87;;
5491;SDS011;2768;53.540;10.224;2022-08-21T17:33:20;3.97;;;1.50;;
5491;SDS011;2768;53.540;10.224;2022-08-21T17:39:16;3.97;;;3.47;;
5491;SDS011;2768;53.540;10.224;2022-08-21T17:45:19;3.53;;;2.07;;
5491;SDS011;2768;53.540;10.224;2022-08-21T17:51:12;2.80;;;1.73;;
5491;SDS011;2768;53.540;10.224;2022-08-21T17:57:06;2.00;;;1.10;;
5491;SDS011;2768;53.540;10.224;2022-08-21T18:03:15;4.93;;;1.40;;
5491;SDS011;2768;53.540;10.224;2022-08-21T18:09:11;1.67;;;1.50;;
5491;SDS011;2768;53.540;10.224;2022-08-21T18:15:05;3.00;;;1.47;;
5491;SDS011;2768;53.540;10.224;2022-08-21T18:21:02;3.37;;;1.70;;
5491;SDS011;2768;53.540;10.224;2022-08-21T18:26:56;3.13;;;1.20;;
5491;SDS011;2768;53.540;10.224;2022-08-21T18:32:49;4.13;;;1.20;;
5491;SDS011;2768;53.540;10.224;2022-08-21T18:38:47;3.73;;;1.70;;
5491;SDS011;2768;53.540;10.224;2022-08-21T18:44:42;4.30;;;1.80;;
5491;SDS011;2768;53.540;10.224;2022-08-21T18:50:37;5.90;;;2.50;;
5491;SDS011;2768;53.540;10.224;2022-08-21T18:56:36;3.53;;;2.20;;
5491;SDS011;2768;53.540;10.224;2022-08-21T19:02:31;3.87;;;1.70;;
5491;SDS011;2768;53.540;10.224;2022-08-21T19:08:25;4.07;;;2.07;;
5491;SDS011;2768;53.540;10.224;2022-08-21T19:14:21;3.40;;;1.67;;
5491;SDS011;2768;53.540;10.224;2022-08-21T19:20:19;2.73;;;2.00;;
5491;SDS011;2768;53.540;10.224;2022-08-21T19:26:16;4.60;;;2.10;;
5491;SDS011;2768;53.540;10.224;2022-08-21T19:32:10;3.90;;;2.40;;
5491;SDS011;2768;53.540;10.224;2022-08-21T19:38:04;4.17;;;1.90;;
5491;SDS011;2768;53.540;10.224;2022-08-21T19:44:02;5.67;;;2.17;;
5491;SDS011;2768;53.540;10.224;2022-08-21T19:50:01;6.63;;;2.40;;
5491;SDS011;2768;53.540;10.224;2022-08-21T19:56:09;4.73;;;2.40;;
5491;SDS011;2768;53.540;10.224;2022-08-21T20:02:06;5.77;;;2.50;;
5491;SDS011;2768;53.540;10.224;2022-08-21T20:08:02;7.20;;;2.17;;
5491;SDS011;2768;53.540;10.224;2022-08-21T20:14:02;4.50;;;2.13;;
5491;SDS011;2768;53.540;10.224;2022-08-21T20:19:57;6.10;;;2.30;;
5491;SDS011;2768;53.540;10.224;2022-08-21T20:25:53;2.87;;;2.00;;
5491;SDS011;2768;53.540;10.224;2022-08-21T20:31:46;4.43;;;2.17;;
5491;SDS011;2768;53.540;10.224;2022-08-21T20:37:40;2.97;;;1.80;;
5491;SDS011;2768;53.540;10.224;2022-08-21T20:43:35;9.00;;;2.80;;
5491;SDS011;2768;53.540;10.224;2022-08-21T20:49:33;7.80;;;2.57;;
5491;SDS011;2768;53.540;10.224;2022-08-21T20:55:31;11.00;;;2.40;;
5491;SDS011;2768;53.540;10.224;2022-08-21T21:01:30;4.50;;;2.57;;
5491;SDS011;2768;53.540;10.224;2022-08-21T21:07:29;3.30;;;2.17;;
5491;SDS011;2768;53.540;10.224;2022-08-21T21:13:29;5.87;;;2.60;;
5491;SDS011;2768;53.540;10.224;2022-08-21T21:19:28;6.80;;;2.30;;
5491;SDS011;2768;53.540;10.224;2022-08-21T21:25:28;4.00;;;1.90;;
5491;SDS011;2768;53.540;10.224;2022-08-21T21:31:31;8.90;;;2.20;;
5491;SDS011;2768;53.540;10.224;2022-08-21T21:37:30;5.93;;;2.50;;
5491;SDS011;2768;53.540;10.224;2022-08-21T21:43:31;6.83;;;2.03;;
5491;SDS011;2768;53.540;10.224;2022-08-21T21:56:02;7.57;;;2.80;;
5491;SDS011;2768;53.540;10.224;2022-08-21T22:02:02;4.37;;;2.30;;
5491;SDS011;2768;53.540;10.224;2022-08-21T22:08:02;7.03;;;2.20;;
5491;SDS011;2768;53.540;10.224;2022-08-21T22:14:03;7.67;;;2.47;;
5491;SDS011;2768;53.540;10.224;2022-08-21T22:20:02;5.53;;;2.70;;
5491;SDS011;2768;53.540;10.224;2022-08-21T22:26:03;6.10;;;2.67;;
5491;SDS011;2768;53.540;10.224;2022-08-21T22:32:00;6.20;;;2.13;;
5491;SDS011;2768;53.540;10.224;2022-08-21T22:37:58;8.80;;;2.37;;
5491;SDS011;2768;53.540;10.224;2022-08-21T22:43:53;8.00;;;2.13;;
5491;SDS011;2768;53.540;10.224;2022-08-21T22:49:53;8.10;;;2.43;;
5491;SDS011;2768;53.540;10.224;2022-08-21T22:55:55;6.47;;;2.63;;
5491;SDS011;2768;53.540;10.224;2022-08-21T23:01:52;16.30;;;2.90;;
5491;SDS011;2768;53.540;10.224;2022-08-21T23:07:51;4.13;;;2.20;;
5491;SDS011;2768;53.540;10.224;2022-08-21T23:13:46;8.60;;;2.77;;
5491;SDS011;2768;53.540;10.224;2022-08-21T23:19:44;8.00;;;2.83;;
5491;SDS011;2768;53.540;10.224;2022-08-21T23:32:12;7.13;;;2.87;;
5491;SDS011;2768;53.540;10.224;2022-08-21T23:38:27;3.90;;;2.23;;
5491;SDS011;2768;53.540;10.224;2022-08-21T23:44:40;5.13;;;2.90;;
5491;SDS011;2768;53.540;10.224;2022-08-21T23:50:48;3.90;;;2.17;;
5491;SDS011;2768;53.540;10.224;2022-08-21T23:56:51;8.37;;;2.50;;
